sensor_id;sensor_type;location;lat;lon;timestamp;temperature;humidity
25933;DHT22;13731;51.166;4.474;2023-05-07T00:00:28;16.30;3.80
25933;DHT22;13731;51.166;4.474;2023-05-07T00:02:54;16.30;99.90
25933;DHT22;13731;51.166;4.474;2023-05-07T00:05:20;16.20;99.90
25933;DHT22;13731;51.166;4.474;2023-05-07T00:07:46;16.10;1.00
25933;DHT22;13731;51.166;4.474;2023-05-07T00:10:12;16.00;1.00
25933;DHT22;13731;51.166;4.474;2023-05-07T00:12:39;16.00;99.90
25933;DHT22;13731;51.166;4.474;2023-05-07T00:15:06;15.90;99.90
25933;DHT22;13731;51.166;4.474;2023-05-07T00:17:33;15.90;99.90
25933;DHT22;13731;51.166;4.474;2023-05-07T00:19:59;15.90;99.90
25933;DHT22;13731;51.166;4.474;2023-05-07T00:22:25;15.80;99.90
25933;DHT22;13731;51.166;4.474;2023-05-07T00:24:51;15.80;1.00
25933;DHT22;13731;51.166;4.474;2023-05-07T00:27:17;15.80;1.00
25933;DHT22;13731;51.166;4.474;2023-05-07T00:29:42;15.90;99.90
25933;DHT22;13731;51.166;4.474;2023-05-07T00:32:08;16.00;99.90
25933;DHT22;13731;51.166;4.474;2023-05-07T00:34:34;15.90;99.90
25933;DHT22;13731;51.166;4.474;2023-05-07T00:37:01;15.90;99.90
25933;DHT22;13731;51.166;4.474;2023-05-07T00:39:27;15.90;99.90
25933;DHT22;13731;51.166;4.474;2023-05-07T00:41:53;15.90;99.90
25933;DHT22;13731;51.166;4.474;2023-05-07T00:44:18;16.00;99.90
25933;DHT22;13731;51.166;4.474;2023-05-07T00:46:44;16.00;99.90
25933;DHT22;13731;51.166;4.474;2023-05-07T00:49:10;16.10;56.10
25933;DHT22;13731;51.166;4.474;2023-05-07T00:51:37;16.20;1.00
25933;DHT22;13731;51.166;4.474;2023-05-07T00:54:03;16.10;1.00
25933;DHT22;13731;51.166;4.474;2023-05-07T00:56:29;16.00;38.40
25933;DHT22;13731;51.166;4.474;2023-05-07T00:58:55;16.00;99.90
25933;DHT22;13731;51.166;4.474;2023-05-07T01:01:21;16.00;41.00
25933;DHT22;13731;51.166;4.474;2023-05-07T01:03:47;16.00;1.00
25933;DHT22;13731;51.166;4.474;2023-05-07T01:06:13;16.20;99.90
25933;DHT22;13731;51.166;4.474;2023-05-07T01:08:43;16.30;99.90
25933;DHT22;13731;51.166;4.474;2023-05-07T01:11:09;16.40;1.00
25933;DHT22;13731;51.166;4.474;2023-05-07T01:13:36;16.40;1.00
25933;DHT22;13731;51.166;4.474;2023-05-07T01:16:03;16.20;19.30
25933;DHT22;13731;51.166;4.474;2023-05-07T01:18:29;16.10;99.90
25933;DHT22;13731;51.166;4.474;2023-05-07T01:20:59;16.10;99.90
25933;DHT22;13731;51.166;4.474;2023-05-07T01:23:27;15.90;1.00
25933;DHT22;13731;51.166;4.474;2023-05-07T01:25:54;15.80;1.00
25933;DHT22;13731;51.166;4.474;2023-05-07T01:28:22;15.60;99.90
25933;DHT22;13731;51.166;4.474;2023-05-07T01:31:00;15.40;99.90
25933;DHT22;13731;51.166;4.474;2023-05-07T01:33:33;15.40;99.90
25933;DHT22;13731;51.166;4.474;2023-05-07T01:36:00;15.40;99.90
25933;DHT22;13731;51.166;4.474;2023-05-07T01:38:28;15.30;99.90
25933;DHT22;13731;51.166;4.474;2023-05-07T01:40:55;15.30;99.90
25933;DHT22;13731;51.166;4.474;2023-05-07T01:43:21;15.20;99.90
25933;DHT22;13731;51.166;4.474;2023-05-07T01:45:47;15.20;99.90
25933;DHT22;13731;51.166;4.474;2023-05-07T01:48:15;15.30;99.90
25933;DHT22;13731;51.166;4.474;2023-05-07T01:50:44;15.20;99.90
25933;DHT22;13731;51.166;4.474;2023-05-07T01:53:10;15.20;99.90
25933;DHT22;13731;51.166;4.474;2023-05-07T01:55:36;15.20;99.90
25933;DHT22;13731;51.166;4.474;2023-05-07T01:58:03;15.10;99.90
25933;DHT22;13731;51.166;4.474;2023-05-07T02:00:29;15.00;99.90
25933;DHT22;13731;51.166;4.474;2023-05-07T02:02:56;15.00;99.90
25933;DHT22;13731;51.166;4.474;2023-05-07T02:05:34;14.90;99.90
25933;DHT22;13731;51.166;4.474;2023-05-07T02:08:09;14.80;1.00
25933;DHT22;13731;51.166;4.474;2023-05-07T02:10:36;14.80;1.00
25933;DHT22;13731;51.166;4.474;2023-05-07T02:13:05;14.70;1.00
25933;DHT22;13731;51.166;4.474;2023-05-07T02:15:30;14.70;1.00
25933;DHT22;13731;51.166;4.474;2023-05-07T02:18:07;14.70;1.00
25933;DHT22;13731;51.166;4.474;2023-05-07T02:20:34;14.80;1.00
25933;DHT22;13731;51.166;4.474;2023-05-07T02:23:01;14.80;1.00
25933;DHT22;13731;51.166;4.474;2023-05-07T02:25:29;14.80;1.00
25933;DHT22;13731;51.166;4.474;2023-05-07T02:27:55;14.80;1.00
25933;DHT22;13731;51.166;4.474;2023-05-07T02:30:28;14.90;1.00
25933;DHT22;13731;51.166;4.474;2023-05-07T02:32:56;15.10;99.90
25933;DHT22;13731;51.166;4.474;2023-05-07T02:35:24;15.10;99.90
25933;DHT22;13731;51.166;4.474;2023-05-07T02:37:50;15.20;99.90
25933;DHT22;13731;51.166;4.474;2023-05-07T02:40:16;15.40;99.90
25933;DHT22;13731;51.166;4.474;2023-05-07T02:42:42;15.30;99.90
25933;DHT22;13731;51.166;4.474;2023-05-07T02:45:08;15.30;99.90
25933;DHT22;13731;51.166;4.474;2023-05-07T02:47:34;15.20;99.90
25933;DHT22;13731;51.166;4.474;2023-05-07T02:50:01;15.20;99.90
25933;DHT22;13731;51.166;4.474;2023-05-07T02:52:28;15.20;1.00
25933;DHT22;13731;51.166;4.474;2023-05-07T02:54:54;15.20;1.00
25933;DHT22;13731;51.166;4.474;2023-05-07T02:57:20;15.30;1.00
25933;DHT22;13731;51.166;4.474;2023-05-07T02:59:46;15.40;99.90
25933;DHT22;13731;51.166;4.474;2023-05-07T03:02:14;15.60;99.90
25933;DHT22;13731;51.166;4.474;2023-05-07T03:04:40;15.80;1.00
25933;DHT22;13731;51.166;4.474;2023-05-07T03:07:06;15.70;99.90
25933;DHT22;13731;51.166;4.474;2023-05-07T03:09:32;15.60;1.00
25933;DHT22;13731;51.166;4.474;2023-05-07T03:11:58;15.70;1.00
25933;DHT22;13731;51.166;4.474;2023-05-07T03:14:24;15.70;1.00
25933;DHT22;13731;51.166;4.474;2023-05-07T03:16:49;15.70;1.00
25933;DHT22;13731;51.166;4.474;2023-05-07T03:19:16;15.80;1.00
25933;DHT22;13731;51.166;4.474;2023-05-07T03:21:41;15.90;1.00
25933;DHT22;13731;51.166;4.474;2023-05-07T03:24:07;15.90;99.90
25933;DHT22;13731;51.166;4.474;2023-05-07T03:26:33;16.00;99.90
25933;DHT22;13731;51.166;4.474;2023-05-07T03:28:59;15.90;99.90
25933;DHT22;13731;51.166;4.474;2023-05-07T03:31:25;16.10;1.00
25933;DHT22;13731;51.166;4.474;2023-05-07T03:33:56;16.20;1.00
25933;DHT22;13731;51.166;4.474;2023-05-07T03:36:23;16.10;1.00
25933;DHT22;13731;51.166;4.474;2023-05-07T03:38:51;16.00;1.00
25933;DHT22;13731;51.166;4.474;2023-05-07T03:41:19;15.90;99.90
25933;DHT22;13731;51.166;4.474;2023-05-07T03:43:46;15.80;99.90
25933;DHT22;13731;51.166;4.474;2023-05-07T03:46:12;15.60;1.00
25933;DHT22;13731;51.166;4.474;2023-05-07T03:48:38;15.60;1.00
25933;DHT22;13731;51.166;4.474;2023-05-07T03:51:06;15.60;1.00
25933;DHT22;13731;51.166;4.474;2023-05-07T03:53:33;15.50;15.80
25933;DHT22;13731;51.166;4.474;2023-05-07T03:55:59;15.40;99.90
25933;DHT22;13731;51.166;4.474;2023-05-07T03:58:25;15.50;99.90
25933;DHT22;13731;51.166;4.474;2023-05-07T04:00:52;15.30;99.90
25933;DHT22;13731;51.166;4.474;2023-05-07T04:03:25;15.10;99.90
25933;DHT22;13731;51.166;4.474;2023-05-07T04:05:52;15.00;1.00
25933;DHT22;13731;51.166;4.474;2023-05-07T04:08:18;15.00;1.00
25933;DHT22;13731;51.166;4.474;2023-05-07T04:10:47;15.00;1.00
25933;DHT22;13731;51.166;4.474;2023-05-07T04:13:13;15.10;1.00
25933;DHT22;13731;51.166;4.474;2023-05-07T04:15:39;15.00;1.00
25933;DHT22;13731;51.166;4.474;2023-05-07T04:18:08;15.10;1.00
25933;DHT22;13731;51.166;4.474;2023-05-07T04:20:35;15.00;1.00
25933;DHT22;13731;51.166;4.474;2023-05-07T04:23:03;15.00;1.00
25933;DHT22;13731;51.166;4.474;2023-05-07T04:25:30;15.00;2.30
25933;DHT22;13731;51.166;4.474;2023-05-07T04:28:04;15.20;1.00
25933;DHT22;13731;51.166;4.474;2023-05-07T04:30:33;15.20;1.00
25933;DHT22;13731;51.166;4.474;2023-05-07T04:33:01;15.40;1.00
25933;DHT22;13731;51.166;4.474;2023-05-07T04:35:29;15.50;1.00
25933;DHT22;13731;51.166;4.474;2023-05-07T04:37:55;15.40;1.00
25933;DHT22;13731;51.166;4.474;2023-05-07T04:40:21;15.40;1.00
25933;DHT22;13731;51.166;4.474;2023-05-07T04:42:47;15.50;1.00
25933;DHT22;13731;51.166;4.474;2023-05-07T04:45:13;15.40;99.90
25933;DHT22;13731;51.166;4.474;2023-05-07T04:47:42;15.40;1.00
25933;DHT22;13731;51.166;4.474;2023-05-07T04:50:08;15.60;1.00
25933;DHT22;13731;51.166;4.474;2023-05-07T04:52:35;15.50;1.00
25933;DHT22;13731;51.166;4.474;2023-05-07T04:55:01;15.70;1.00
25933;DHT22;13731;51.166;4.474;2023-05-07T04:57:33;15.80;99.90
25933;DHT22;13731;51.166;4.474;2023-05-07T04:59:59;15.90;99.90
25933;DHT22;13731;51.166;4.474;2023-05-07T05:02:25;16.10;1.00
25933;DHT22;13731;51.166;4.474;2023-05-07T05:04:51;16.10;1.00
25933;DHT22;13731;51.166;4.474;2023-05-07T05:07:18;16.20;99.90
25933;DHT22;13731;51.166;4.474;2023-05-07T05:09:44;16.20;99.90
25933;DHT22;13731;51.166;4.474;2023-05-07T05:12:10;16.20;99.90
25933;DHT22;13731;51.166;4.474;2023-05-07T05:14:37;16.20;99.90
25933;DHT22;13731;51.166;4.474;2023-05-07T05:17:03;16.20;99.90
25933;DHT22;13731;51.166;4.474;2023-05-07T05:19:29;16.20;99.90
25933;DHT22;13731;51.166;4.474;2023-05-07T05:21:55;16.20;99.90
25933;DHT22;13731;51.166;4.474;2023-05-07T05:24:21;16.30;90.90
25933;DHT22;13731;51.166;4.474;2023-05-07T05:26:48;16.30;1.00
25933;DHT22;13731;51.166;4.474;2023-05-07T05:29:13;16.10;99.90
25933;DHT22;13731;51.166;4.474;2023-05-07T05:31:41;16.40;99.90
25933;DHT22;13731;51.166;4.474;2023-05-07T05:34:07;16.30;1.00
25933;DHT22;13731;51.166;4.474;2023-05-07T05:36:34;16.30;1.00
25933;DHT22;13731;51.166;4.474;2023-05-07T05:39:00;16.60;99.90
25933;DHT22;13731;51.166;4.474;2023-05-07T05:41:27;17.10;1.00
25933;DHT22;13731;51.166;4.474;2023-05-07T05:43:53;17.10;99.90
25933;DHT22;13731;51.166;4.474;2023-05-07T05:46:19;17.00;99.90
25933;DHT22;13731;51.166;4.474;2023-05-07T05:48:46;16.70;1.00
25933;DHT22;13731;51.166;4.474;2023-05-07T05:51:12;16.50;1.00
25933;DHT22;13731;51.166;4.474;2023-05-07T05:53:38;16.30;99.90
25933;DHT22;13731;51.166;4.474;2023-05-07T05:56:05;16.30;1.00
25933;DHT22;13731;51.166;4.474;2023-05-07T05:58:33;16.40;1.00
25933;DHT22;13731;51.166;4.474;2023-05-07T06:01:02;16.30;99.90
25933;DHT22;13731;51.166;4.474;2023-05-07T06:03:30;16.40;99.90
25933;DHT22;13731;51.166;4.474;2023-05-07T06:05:59;16.50;99.90
25933;DHT22;13731;51.166;4.474;2023-05-07T06:08:31;16.50;1.00
25933;DHT22;13731;51.166;4.474;2023-05-07T06:10:58;16.10;1.00
25933;DHT22;13731;51.166;4.474;2023-05-07T06:13:26;15.90;99.90
25933;DHT22;13731;51.166;4.474;2023-05-07T06:15:52;16.00;99.90
25933;DHT22;13731;51.166;4.474;2023-05-07T06:18:18;16.00;99.90
25933;DHT22;13731;51.166;4.474;2023-05-07T06:20:43;16.20;99.90
25933;DHT22;13731;51.166;4.474;2023-05-07T06:23:17;16.40;1.00
25933;DHT22;13731;51.166;4.474;2023-05-07T06:25:48;16.50;99.90
25933;DHT22;13731;51.166;4.474;2023-05-07T06:28:14;16.70;99.90
25933;DHT22;13731;51.166;4.474;2023-05-07T06:30:41;16.70;1.00
25933;DHT22;13731;51.166;4.474;2023-05-07T06:33:08;16.70;1.00
25933;DHT22;13731;51.166;4.474;2023-05-07T06:35:33;16.80;99.90
25933;DHT22;13731;51.166;4.474;2023-05-07T06:38:00;16.60;99.90
25933;DHT22;13731;51.166;4.474;2023-05-07T06:40:28;16.80;1.00
25933;DHT22;13731;51.166;4.474;2023-05-07T06:42:56;17.00;1.00
25933;DHT22;13731;51.166;4.474;2023-05-07T06:45:42;17.30;1.00
25933;DHT22;13731;51.166;4.474;2023-05-07T06:48:08;17.50;1.00
25933;DHT22;13731;51.166;4.474;2023-05-07T06:50:44;17.80;99.90
25933;DHT22;13731;51.166;4.474;2023-05-07T06:53:11;17.90;1.00
25933;DHT22;13731;51.166;4.474;2023-05-07T06:55:37;17.90;1.00
25933;DHT22;13731;51.166;4.474;2023-05-07T06:58:04;17.90;99.90
25933;DHT22;13731;51.166;4.474;2023-05-07T07:00:32;17.90;1.00
25933;DHT22;13731;51.166;4.474;2023-05-07T07:02:57;17.70;99.90
25933;DHT22;13731;51.166;4.474;2023-05-07T07:05:27;17.60;1.00
25933;DHT22;13731;51.166;4.474;2023-05-07T07:07:53;17.50;99.90
25933;DHT22;13731;51.166;4.474;2023-05-07T07:10:20;17.50;99.90
25933;DHT22;13731;51.166;4.474;2023-05-07T07:12:47;17.60;99.90
25933;DHT22;13731;51.166;4.474;2023-05-07T07:15:14;17.80;1.00
25933;DHT22;13731;51.166;4.474;2023-05-07T07:17:41;18.00;1.00
25933;DHT22;13731;51.166;4.474;2023-05-07T07:20:07;18.40;1.00
25933;DHT22;13731;51.166;4.474;2023-05-07T07:22:33;18.60;40.10
25933;DHT22;13731;51.166;4.474;2023-05-07T07:25:00;19.00;1.00
25933;DHT22;13731;51.166;4.474;2023-05-07T07:27:26;19.30;1.00
25933;DHT22;13731;51.166;4.474;2023-05-07T07:29:52;19.30;98.10
25933;DHT22;13731;51.166;4.474;2023-05-07T07:32:19;19.40;99.90
25933;DHT22;13731;51.166;4.474;2023-05-07T07:34:45;19.50;1.00
25933;DHT22;13731;51.166;4.474;2023-05-07T07:37:12;19.40;1.00
25933;DHT22;13731;51.166;4.474;2023-05-07T07:39:37;19.50;99.90
25933;DHT22;13731;51.166;4.474;2023-05-07T07:42:05;19.40;52.40
25933;DHT22;13731;51.166;4.474;2023-05-07T07:44:31;19.50;99.90
25933;DHT22;13731;51.166;4.474;2023-05-07T07:47:02;19.40;1.00
25933;DHT22;13731;51.166;4.474;2023-05-07T07:49:28;19.60;1.00
25933;DHT22;13731;51.166;4.474;2023-05-07T07:51:56;19.40;1.00
25933;DHT22;13731;51.166;4.474;2023-05-07T07:54:22;19.70;99.90
25933;DHT22;13731;51.166;4.474;2023-05-07T07:56:48;19.60;1.00
25933;DHT22;13731;51.166;4.474;2023-05-07T07:59:14;19.70;99.90
25933;DHT22;13731;51.166;4.474;2023-05-07T08:01:44;19.80;99.90
25933;DHT22;13731;51.166;4.474;2023-05-07T08:04:10;20.00;99.90
25933;DHT22;13731;51.166;4.474;2023-05-07T08:06:39;20.30;17.60
25933;DHT22;13731;51.166;4.474;2023-05-07T08:09:07;20.30;1.00
25933;DHT22;13731;51.166;4.474;2023-05-07T08:11:34;20.40;1.00
25933;DHT22;13731;51.166;4.474;2023-05-07T08:14:00;20.40;1.00
25933;DHT22;13731;51.166;4.474;2023-05-07T08:16:26;20.30;1.00
25933;DHT22;13731;51.166;4.474;2023-05-07T08:18:52;20.10;1.00
25933;DHT22;13731;51.166;4.474;2023-05-07T08:21:18;20.10;94.70
25933;DHT22;13731;51.166;4.474;2023-05-07T08:23:44;20.30;1.00
25933;DHT22;13731;51.166;4.474;2023-05-07T08:26:10;20.30;1.00
25933;DHT22;13731;51.166;4.474;2023-05-07T08:28:36;20.50;1.00
25933;DHT22;13731;51.166;4.474;2023-05-07T08:31:02;20.50;1.00
25933;DHT22;13731;51.166;4.474;2023-05-07T08:33:32;19.80;99.90
25933;DHT22;13731;51.166;4.474;2023-05-07T08:35:58;19.90;99.90
25933;DHT22;13731;51.166;4.474;2023-05-07T08:38:25;19.90;78.70
25933;DHT22;13731;51.166;4.474;2023-05-07T08:40:51;19.90;99.90
25933;DHT22;13731;51.166;4.474;2023-05-07T08:43:19;20.00;99.90
25933;DHT22;13731;51.166;4.474;2023-05-07T08:45:49;19.80;99.90
25933;DHT22;13731;51.166;4.474;2023-05-07T08:48:22;19.80;99.90
25933;DHT22;13731;51.166;4.474;2023-05-07T08:50:58;19.80;99.90
25933;DHT22;13731;51.166;4.474;2023-05-07T08:53:25;20.00;99.90
25933;DHT22;13731;51.166;4.474;2023-05-07T08:55:51;20.10;99.90
25933;DHT22;13731;51.166;4.474;2023-05-07T08:58:18;19.80;1.00
25933;DHT22;13731;51.166;4.474;2023-05-07T09:00:44;19.70;1.00
25933;DHT22;13731;51.166;4.474;2023-05-07T09:03:11;19.50;99.90
25933;DHT22;13731;51.166;4.474;2023-05-07T09:05:39;19.20;99.90
25933;DHT22;13731;51.166;4.474;2023-05-07T09:08:07;18.80;99.90
25933;DHT22;13731;51.166;4.474;2023-05-07T09:10:34;18.80;99.90
25933;DHT22;13731;51.166;4.474;2023-05-07T09:13:02;18.80;1.00
25933;DHT22;13731;51.166;4.474;2023-05-07T09:15:29;18.70;1.00
25933;DHT22;13731;51.166;4.474;2023-05-07T09:17:59;18.70;1.00
25933;DHT22;13731;51.166;4.474;2023-05-07T09:20:29;18.70;99.90
25933;DHT22;13731;51.166;4.474;2023-05-07T09:22:56;18.70;99.90
25933;DHT22;13731;51.166;4.474;2023-05-07T09:25:31;18.80;99.90
25933;DHT22;13731;51.166;4.474;2023-05-07T09:28:02;18.70;99.90
25933;DHT22;13731;51.166;4.474;2023-05-07T09:30:29;18.30;1.00
25933;DHT22;13731;51.166;4.474;2023-05-07T09:33:02;18.30;99.90
25933;DHT22;13731;51.166;4.474;2023-05-07T09:35:28;18.30;99.90
25933;DHT22;13731;51.166;4.474;2023-05-07T09:38:00;18.40;99.90
25933;DHT22;13731;51.166;4.474;2023-05-07T09:40:29;18.30;99.90
25933;DHT22;13731;51.166;4.474;2023-05-07T09:43:13;18.10;1.00
25933;DHT22;13731;51.166;4.474;2023-05-07T09:45:46;18.00;1.00
25933;DHT22;13731;51.166;4.474;2023-05-07T09:48:18;18.00;1.00
25933;DHT22;13731;51.166;4.474;2023-05-07T09:50:55;17.90;1.00
25933;DHT22;13731;51.166;4.474;2023-05-07T09:53:27;17.80;99.90
25933;DHT22;13731;51.166;4.474;2023-05-07T09:55:56;17.70;1.00
25933;DHT22;13731;51.166;4.474;2023-05-07T09:58:23;17.90;99.90
25933;DHT22;13731;51.166;4.474;2023-05-07T10:00:50;17.90;99.90
25933;DHT22;13731;51.166;4.474;2023-05-07T10:03:18;17.90;99.90
25933;DHT22;13731;51.166;4.474;2023-05-07T10:05:54;17.90;1.00
25933;DHT22;13731;51.166;4.474;2023-05-07T10:08:21;17.90;1.00
25933;DHT22;13731;51.166;4.474;2023-05-07T10:10:50;17.90;16.80
25933;DHT22;13731;51.166;4.474;2023-05-07T10:13:21;17.70;99.90
25933;DHT22;13731;51.166;4.474;2023-05-07T10:15:50;17.80;99.90
25933;DHT22;13731;51.166;4.474;2023-05-07T10:18:18;17.70;99.90
25933;DHT22;13731;51.166;4.474;2023-05-07T10:20:51;17.60;99.90
25933;DHT22;13731;51.166;4.474;2023-05-07T10:23:23;17.60;99.90
25933;DHT22;13731;51.166;4.474;2023-05-07T10:25:50;17.60;1.00
25933;DHT22;13731;51.166;4.474;2023-05-07T10:28:22;17.60;1.00
25933;DHT22;13731;51.166;4.474;2023-05-07T10:33:24;17.60;11.90
25933;DHT22;13731;51.166;4.474;2023-05-07T10:35:57;17.60;99.90
25933;DHT22;13731;51.166;4.474;2023-05-07T10:38:25;17.50;1.00
25933;DHT22;13731;51.166;4.474;2023-05-07T10:40:52;17.60;1.00
25933;DHT22;13731;51.166;4.474;2023-05-07T10:43:18;17.70;1.00
25933;DHT22;13731;51.166;4.474;2023-05-07T10:46:19;17.90;99.90
25933;DHT22;13731;51.166;4.474;2023-05-07T10:51:35;17.80;16.90
25933;DHT22;13731;51.166;4.474;2023-05-07T10:56:36;17.80;99.90
25933;DHT22;13731;51.166;4.474;2023-05-07T11:02:02;17.90;99.90
25933;DHT22;13731;51.166;4.474;2023-05-07T11:04:45;18.00;1.00
25933;DHT22;13731;51.166;4.474;2023-05-07T11:07:28;18.00;1.00
25933;DHT22;13731;51.166;4.474;2023-05-07T11:10:00;18.20;1.00
25933;DHT22;13731;51.166;4.474;2023-05-07T11:12:58;18.00;99.90
25933;DHT22;13731;51.166;4.474;2023-05-07T11:15:38;18.10;1.00
25933;DHT22;13731;51.166;4.474;2023-05-07T11:18:16;18.00;99.90
25933;DHT22;13731;51.166;4.474;2023-05-07T11:20:49;17.90;99.90
25933;DHT22;13731;51.166;4.474;2023-05-07T11:26:41;17.90;1.00
25933;DHT22;13731;51.166;4.474;2023-05-07T11:29:18;17.70;1.00
25933;DHT22;13731;51.166;4.474;2023-05-07T11:31:52;17.90;1.00
25933;DHT22;13731;51.166;4.474;2023-05-07T11:34:25;17.90;99.90
25933;DHT22;13731;51.166;4.474;2023-05-07T11:36:53;18.00;1.00
25933;DHT22;13731;51.166;4.474;2023-05-07T11:39:34;18.20;1.00
25933;DHT22;13731;51.166;4.474;2023-05-07T11:42:02;18.20;99.90
25933;DHT22;13731;51.166;4.474;2023-05-07T11:44:46;18.20;1.00
25933;DHT22;13731;51.166;4.474;2023-05-07T11:47:20;18.20;99.90
25933;DHT22;13731;51.166;4.474;2023-05-07T11:49:50;18.60;99.90
25933;DHT22;13731;51.166;4.474;2023-05-07T11:52:17;18.80;1.00
25933;DHT22;13731;51.166;4.474;2023-05-07T11:54:55;18.50;1.00
25933;DHT22;13731;51.166;4.474;2023-05-07T11:57:22;18.70;99.90
25933;DHT22;13731;51.166;4.474;2023-05-07T11:59:53;18.60;1.00
25933;DHT22;13731;51.166;4.474;2023-05-07T12:02:19;18.60;1.00
25933;DHT22;13731;51.166;4.474;2023-05-07T12:04:45;18.50;1.00
25933;DHT22;13731;51.166;4.474;2023-05-07T12:07:14;18.50;1.00
25933;DHT22;13731;51.166;4.474;2023-05-07T12:09:43;18.70;99.90
25933;DHT22;13731;51.166;4.474;2023-05-07T12:12:10;18.90;99.90
25933;DHT22;13731;51.166;4.474;2023-05-07T12:14:41;18.80;99.90
25933;DHT22;13731;51.166;4.474;2023-05-07T12:17:08;18.70;99.90
25933;DHT22;13731;51.166;4.474;2023-05-07T12:19:35;18.60;1.00
25933;DHT22;13731;51.166;4.474;2023-05-07T12:22:02;18.50;1.00
25933;DHT22;13731;51.166;4.474;2023-05-07T12:24:41;18.50;99.90
25933;DHT22;13731;51.166;4.474;2023-05-07T12:27:06;18.60;1.00
25933;DHT22;13731;51.166;4.474;2023-05-07T12:29:32;18.90;99.90
25933;DHT22;13731;51.166;4.474;2023-05-07T12:31:58;18.90;99.90
25933;DHT22;13731;51.166;4.474;2023-05-07T12:34:24;18.80;99.90
25933;DHT22;13731;51.166;4.474;2023-05-07T12:36:50;19.00;99.90
25933;DHT22;13731;51.166;4.474;2023-05-07T12:39:16;19.00;99.90
25933;DHT22;13731;51.166;4.474;2023-05-07T12:41:55;18.80;96.90
25933;DHT22;13731;51.166;4.474;2023-05-07T12:44:39;18.70;99.90
25933;DHT22;13731;51.166;4.474;2023-05-07T12:47:05;19.00;1.00
25933;DHT22;13731;51.166;4.474;2023-05-07T12:49:31;19.20;99.90
25933;DHT22;13731;51.166;4.474;2023-05-07T12:52:00;19.40;1.00
25933;DHT22;13731;51.166;4.474;2023-05-07T12:54:33;19.40;99.90
25933;DHT22;13731;51.166;4.474;2023-05-07T12:59:47;19.70;1.00
25933;DHT22;13731;51.166;4.474;2023-05-07T13:02:12;20.00;96.90
25933;DHT22;13731;51.166;4.474;2023-05-07T13:04:40;20.50;99.90
25933;DHT22;13731;51.166;4.474;2023-05-07T13:07:06;20.80;99.90
25933;DHT22;13731;51.166;4.474;2023-05-07T13:09:32;21.00;99.90
25933;DHT22;13731;51.166;4.474;2023-05-07T13:11:58;21.20;1.00
25933;DHT22;13731;51.166;4.474;2023-05-07T13:14:27;21.40;1.00
25933;DHT22;13731;51.166;4.474;2023-05-07T13:16:52;21.50;54.50
25933;DHT22;13731;51.166;4.474;2023-05-07T13:19:18;21.60;99.90
25933;DHT22;13731;51.166;4.474;2023-05-07T13:21:44;21.80;99.90
25933;DHT22;13731;51.166;4.474;2023-05-07T13:24:10;21.80;99.90
25933;DHT22;13731;51.166;4.474;2023-05-07T13:26:36;21.80;99.90
25933;DHT22;13731;51.166;4.474;2023-05-07T13:29:01;21.90;99.90
25933;DHT22;13731;51.166;4.474;2023-05-07T13:31:27;22.10;99.90
25933;DHT22;13731;51.166;4.474;2023-05-07T13:33:53;22.30;1.00
25933;DHT22;13731;51.166;4.474;2023-05-07T13:36:21;22.40;84.50
25933;DHT22;13731;51.166;4.474;2023-05-07T13:38:47;22.50;1.00
25933;DHT22;13731;51.166;4.474;2023-05-07T13:41:13;22.40;1.00
25933;DHT22;13731;51.166;4.474;2023-05-07T13:43:39;22.10;1.00
25933;DHT22;13731;51.166;4.474;2023-05-07T13:46:05;22.10;25.30
25933;DHT22;13731;51.166;4.474;2023-05-07T13:48:31;21.90;99.90
25933;DHT22;13731;51.166;4.474;2023-05-07T13:50:57;21.70;99.90
25933;DHT22;13731;51.166;4.474;2023-05-07T13:53:23;22.00;99.90
25933;DHT22;13731;51.166;4.474;2023-05-07T13:55:49;22.20;99.90
25933;DHT22;13731;51.166;4.474;2023-05-07T13:58:14;22.60;1.00
25933;DHT22;13731;51.166;4.474;2023-05-07T14:00:40;22.80;1.00
25933;DHT22;13731;51.166;4.474;2023-05-07T14:03:06;23.00;1.00
25933;DHT22;13731;51.166;4.474;2023-05-07T14:05:32;22.40;45.30
25933;DHT22;13731;51.166;4.474;2023-05-07T14:07:58;22.40;55.40
25933;DHT22;13731;51.166;4.474;2023-05-07T14:10:24;22.50;1.00
25933;DHT22;13731;51.166;4.474;2023-05-07T14:12:50;22.30;1.00
25933;DHT22;13731;51.166;4.474;2023-05-07T14:15:16;22.60;1.00
25933;DHT22;13731;51.166;4.474;2023-05-07T14:17:42;22.60;1.00
25933;DHT22;13731;51.166;4.474;2023-05-07T14:20:09;23.10;99.90
25933;DHT22;13731;51.166;4.474;2023-05-07T14:22:36;23.70;99.90
25933;DHT22;13731;51.166;4.474;2023-05-07T14:25:02;23.80;99.90
25933;DHT22;13731;51.166;4.474;2023-05-07T14:27:28;22.80;1.00
25933;DHT22;13731;51.166;4.474;2023-05-07T14:29:54;22.40;1.00
25933;DHT22;13731;51.166;4.474;2023-05-07T14:32:21;22.60;12.90
25933;DHT22;13731;51.166;4.474;2023-05-07T14:34:47;23.20;1.00
25933;DHT22;13731;51.166;4.474;2023-05-07T14:37:13;22.80;1.00
25933;DHT22;13731;51.166;4.474;2023-05-07T14:39:39;22.60;1.00
25933;DHT22;13731;51.166;4.474;2023-05-07T14:42:05;22.50;1.00
25933;DHT22;13731;51.166;4.474;2023-05-07T14:44:37;23.30;1.00
25933;DHT22;13731;51.166;4.474;2023-05-07T14:47:03;22.90;1.00
25933;DHT22;13731;51.166;4.474;2023-05-07T14:49:28;22.40;1.00
25933;DHT22;13731;51.166;4.474;2023-05-07T14:51:57;21.40;99.90
25933;DHT22;13731;51.166;4.474;2023-05-07T14:54:24;20.80;99.90
25933;DHT22;13731;51.166;4.474;2023-05-07T14:56:49;20.80;99.90
25933;DHT22;13731;51.166;4.474;2023-05-07T14:59:15;20.80;97.30
25933;DHT22;13731;51.166;4.474;2023-05-07T15:01:44;20.60;1.00
25933;DHT22;13731;51.166;4.474;2023-05-07T15:04:11;20.70;1.00
25933;DHT22;13731;51.166;4.474;2023-05-07T15:06:37;21.30;1.00
25933;DHT22;13731;51.166;4.474;2023-05-07T15:09:02;22.20;72.90
25933;DHT22;13731;51.166;4.474;2023-05-07T15:11:28;22.90;1.00
25933;DHT22;13731;51.166;4.474;2023-05-07T15:13:54;23.30;1.00
25933;DHT22;13731;51.166;4.474;2023-05-07T15:16:20;23.40;99.90
25933;DHT22;13731;51.166;4.474;2023-05-07T15:18:46;23.10;99.90
25933;DHT22;13731;51.166;4.474;2023-05-07T15:21:12;23.00;1.00
25933;DHT22;13731;51.166;4.474;2023-05-07T15:23:39;22.90;1.00
25933;DHT22;13731;51.166;4.474;2023-05-07T15:26:06;22.30;1.00
25933;DHT22;13731;51.166;4.474;2023-05-07T15:28:33;22.10;1.00
25933;DHT22;13731;51.166;4.474;2023-05-07T15:30:59;22.00;3.60
25933;DHT22;13731;51.166;4.474;2023-05-07T15:33:25;21.60;99.90
25933;DHT22;13731;51.166;4.474;2023-05-07T15:35:51;21.70;99.90
25933;DHT22;13731;51.166;4.474;2023-05-07T15:38:17;22.40;1.00
25933;DHT22;13731;51.166;4.474;2023-05-07T15:40:43;22.50;1.00
25933;DHT22;13731;51.166;4.474;2023-05-07T15:43:09;22.20;1.00
25933;DHT22;13731;51.166;4.474;2023-05-07T15:45:42;22.70;1.00
25933;DHT22;13731;51.166;4.474;2023-05-07T15:48:09;22.50;1.00
25933;DHT22;13731;51.166;4.474;2023-05-07T15:50:36;22.40;1.00
25933;DHT22;13731;51.166;4.474;2023-05-07T15:53:02;22.10;25.90
25933;DHT22;13731;51.166;4.474;2023-05-07T15:55:29;21.80;99.90
25933;DHT22;13731;51.166;4.474;2023-05-07T15:57:55;21.90;99.90